sensor_id;sensor_type;location;lat;lon;timestamp;P1;durP1;ratioP1;P2;durP2;ratioP2
5904;SDS011;2978;42.012;24.880;2022-11-15T00:01:26;10.37;;;7.57;;
5904;SDS011;2978;42.012;24.880;2022-11-15T00:03:51;10.20;;;6.63;;
5904;SDS011;2978;42.012;24.880;2022-11-15T00:06:17;10.23;;;7.30;;
5904;SDS011;2978;42.012;24.880;2022-11-15T00:08:42;8.47;;;6.20;;
5904;SDS011;2978;42.012;24.880;2022-11-15T00:11:09;8.83;;;6.93;;
5904;SDS011;2978;42.012;24.880;2022-11-15T00:13:36;7.73;;;6.43;;
5904;SDS011;2978;42.012;24.880;2022-11-15T00:16:02;6.87;;;5.97;;
5904;SDS011;2978;42.012;24.880;2022-11-15T00:18:28;6.93;;;6.10;;
5904;SDS011;2978;42.012;24.880;2022-11-15T00:20:54;8.43;;;6.32;;
5904;SDS011;2978;42.012;24.880;2022-11-15T00:23:20;8.83;;;6.97;;
5904;SDS011;2978;42.012;24.880;2022-11-15T00:25:46;10.23;;;6.63;;
5904;SDS011;2978;42.012;24.880;2022-11-15T00:28:11;9.40;;;7.87;;
5904;SDS011;2978;42.012;24.880;2022-11-15T00:30:37;11.47;;;6.80;;
5904;SDS011;2978;42.012;24.880;2022-11-15T00:33:05;9.80;;;6.60;;
5904;SDS011;2978;42.012;24.880;2022-11-15T00:35:32;6.60;;;5.83;;
5904;SDS011;2978;42.012;24.880;2022-11-15T00:37:59;10.37;;;7.10;;
5904;SDS011;2978;42.012;24.880;2022-11-15T00:40:25;7.50;;;6.10;;
5904;SDS011;2978;42.012;24.880;2022-11-15T00:42:50;7.50;;;6.40;;
5904;SDS011;2978;42.012;24.880;2022-11-15T00:45:16;10.43;;;6.97;;
5904;SDS011;2978;42.012;24.880;2022-11-15T00:47:43;8.40;;;6.30;;
5904;SDS011;2978;42.012;24.880;2022-11-15T00:50:10;7.80;;;6.90;;
5904;SDS011;2978;42.012;24.880;2022-11-15T00:52:35;8.83;;;6.50;;
5904;SDS011;2978;42.012;24.880;2022-11-15T00:55:01;7.37;;;5.87;;
5904;SDS011;2978;42.012;24.880;2022-11-15T00:57:26;6.50;;;5.70;;
5904;SDS011;2978;42.012;24.880;2022-11-15T00:59:52;9.60;;;6.63;;
5904;SDS011;2978;42.012;24.880;2022-11-15T01:02:17;6.97;;;6.20;;
5904;SDS011;2978;42.012;24.880;2022-11-15T01:04:43;7.57;;;6.40;;
5904;SDS011;2978;42.012;24.880;2022-11-15T01:07:08;9.50;;;6.23;;
5904;SDS011;2978;42.012;24.880;2022-11-15T01:09:34;14.60;;;7.20;;
5904;SDS011;2978;42.012;24.880;2022-11-15T01:11:59;9.60;;;6.77;;
5904;SDS011;2978;42.012;24.880;2022-11-15T01:14:25;10.53;;;6.50;;
5904;SDS011;2978;42.012;24.880;2022-11-15T01:16:50;11.57;;;5.97;;
5904;SDS011;2978;42.012;24.880;2022-11-15T01:19:16;9.30;;;6.43;;
5904;SDS011;2978;42.012;24.880;2022-11-15T01:21:41;7.23;;;6.13;;
5904;SDS011;2978;42.012;24.880;2022-11-15T01:24:07;7.70;;;6.23;;
5904;SDS011;2978;42.012;24.880;2022-11-15T01:26:36;14.43;;;6.87;;
5904;SDS011;2978;42.012;24.880;2022-11-15T01:29:02;7.80;;;5.93;;
5904;SDS011;2978;42.012;24.880;2022-11-15T01:31:27;8.70;;;6.30;;
5904;SDS011;2978;42.012;24.880;2022-11-15T01:33:53;8.00;;;5.50;;
5904;SDS011;2978;42.012;24.880;2022-11-15T01:36:19;9.23;;;5.80;;
5904;SDS011;2978;42.012;24.880;2022-11-15T01:39:07;6.80;;;5.60;;
5904;SDS011;2978;42.012;24.880;2022-11-15T01:41:33;11.57;;;6.03;;
5904;SDS011;2978;42.012;24.880;2022-11-15T01:47:02;10.53;;;5.93;;
5904;SDS011;2978;42.012;24.880;2022-11-15T01:49:32;10.37;;;6.07;;
5904;SDS011;2978;42.012;24.880;2022-11-15T01:52:00;6.93;;;5.50;;
5904;SDS011;2978;42.012;24.880;2022-11-15T01:54:28;11.20;;;5.53;;
5904;SDS011;2978;42.012;24.880;2022-11-15T01:57:02;6.80;;;5.73;;
5904;SDS011;2978;42.012;24.880;2022-11-15T01:59:31;7.10;;;5.83;;
5904;SDS011;2978;42.012;24.880;2022-11-15T02:01:58;6.97;;;5.80;;
5904;SDS011;2978;42.012;24.880;2022-11-15T02:04:34;11.10;;;6.30;;
5904;SDS011;2978;42.012;24.880;2022-11-15T02:07:04;7.00;;;5.93;;
5904;SDS011;2978;42.012;24.880;2022-11-15T02:09:33;14.17;;;6.60;;
5904;SDS011;2978;42.012;24.880;2022-11-15T02:12:01;7.87;;;7.07;;
5904;SDS011;2978;42.012;24.880;2022-11-15T02:14:27;7.30;;;5.90;;
5904;SDS011;2978;42.012;24.880;2022-11-15T02:31:17;5.87;;;5.27;;
5904;SDS011;2978;42.012;24.880;2022-11-15T02:41:58;7.67;;;6.03;;
5904;SDS011;2978;42.012;24.880;2022-11-15T02:44:33;7.20;;;5.47;;
5904;SDS011;2978;42.012;24.880;2022-11-15T02:47:04;6.45;;;4.93;;
5904;SDS011;2978;42.012;24.880;2022-11-15T02:49:39;10.53;;;5.73;;
5904;SDS011;2978;42.012;24.880;2022-11-15T02:52:09;8.30;;;6.07;;
5904;SDS011;2978;42.012;24.880;2022-11-15T02:54:34;13.80;;;5.87;;
5904;SDS011;2978;42.012;24.880;2022-11-15T02:57:04;7.43;;;6.17;;
5904;SDS011;2978;42.012;24.880;2022-11-15T03:07:52;6.20;;;5.30;;
5904;SDS011;2978;42.012;24.880;2022-11-15T03:16:02;6.17;;;5.27;;
5904;SDS011;2978;42.012;24.880;2022-11-15T03:18:38;6.67;;;5.23;;
5904;SDS011;2978;42.012;24.880;2022-11-15T03:21:09;8.27;;;5.30;;
5904;SDS011;2978;42.012;24.880;2022-11-15T03:23:38;6.20;;;4.97;;
5904;SDS011;2978;42.012;24.880;2022-11-15T03:26:05;6.00;;;4.90;;
5904;SDS011;2978;42.012;24.880;2022-11-15T03:28:36;5.47;;;4.83;;
5904;SDS011;2978;42.012;24.880;2022-11-15T03:31:05;6.00;;;4.93;;
5904;SDS011;2978;42.012;24.880;2022-11-15T03:33:53;9.80;;;4.23;;
5904;SDS011;2978;42.012;24.880;2022-11-15T03:36:22;6.40;;;5.10;;
5904;SDS011;2978;42.012;24.880;2022-11-15T03:38:50;5.10;;;4.53;;
5904;SDS011;2978;42.012;24.880;2022-11-15T03:41:35;9.13;;;5.37;;
5904;SDS011;2978;42.012;24.880;2022-11-15T03:47:00;9.23;;;5.60;;
5904;SDS011;2978;42.012;24.880;2022-11-15T03:49:34;6.77;;;5.07;;
5904;SDS011;2978;42.012;24.880;2022-11-15T03:52:03;12.63;;;5.77;;
5904;SDS011;2978;42.012;24.880;2022-11-15T03:54:30;7.77;;;5.47;;
5904;SDS011;2978;42.012;24.880;2022-11-15T03:56:55;5.77;;;4.67;;
5904;SDS011;2978;42.012;24.880;2022-11-15T03:59:21;5.37;;;4.83;;
5904;SDS011;2978;42.012;24.880;2022-11-15T04:01:47;5.33;;;4.57;;
5904;SDS011;2978;42.012;24.880;2022-11-15T04:04:12;7.40;;;4.60;;
5904;SDS011;2978;42.012;24.880;2022-11-15T04:06:38;10.03;;;5.63;;
5904;SDS011;2978;42.012;24.880;2022-11-15T04:09:03;5.77;;;5.23;;
5904;SDS011;2978;42.012;24.880;2022-11-15T04:11:29;5.83;;;5.00;;
5904;SDS011;2978;42.012;24.880;2022-11-15T04:13:54;9.73;;;5.43;;
5904;SDS011;2978;42.012;24.880;2022-11-15T04:16:20;6.40;;;5.27;;
5904;SDS011;2978;42.012;24.880;2022-11-15T04:18:45;10.63;;;5.50;;
5904;SDS011;2978;42.012;24.880;2022-11-15T04:21:30;9.13;;;4.67;;
5904;SDS011;2978;42.012;24.880;2022-11-15T04:24:14;7.87;;;4.87;;
5904;SDS011;2978;42.012;24.880;2022-11-15T04:26:40;6.23;;;5.07;;
5904;SDS011;2978;42.012;24.880;2022-11-15T04:29:06;6.10;;;5.07;;
5904;SDS011;2978;42.012;24.880;2022-11-15T04:31:50;10.90;;;5.30;;
5904;SDS011;2978;42.012;24.880;2022-11-15T04:34:15;8.47;;;5.10;;
5904;SDS011;2978;42.012;24.880;2022-11-15T04:36:40;6.20;;;4.90;;
5904;SDS011;2978;42.012;24.880;2022-11-15T04:39:25;7.47;;;5.50;;
5904;SDS011;2978;42.012;24.880;2022-11-15T04:41:50;8.40;;;4.23;;
5904;SDS011;2978;42.012;24.880;2022-11-15T04:44:15;7.00;;;4.50;;
5904;SDS011;2978;42.012;24.880;2022-11-15T04:46:41;8.80;;;5.37;;
5904;SDS011;2978;42.012;24.880;2022-11-15T04:49:06;9.43;;;5.17;;
5904;SDS011;2978;42.012;24.880;2022-11-15T04:51:32;8.00;;;5.20;;
5904;SDS011;2978;42.012;24.880;2022-11-15T04:53:57;8.67;;;5.63;;
5904;SDS011;2978;42.012;24.880;2022-11-15T04:56:23;7.97;;;4.90;;
5904;SDS011;2978;42.012;24.880;2022-11-15T04:58:48;17.43;;;5.83;;
5904;SDS011;2978;42.012;24.880;2022-11-15T05:01:14;8.77;;;5.70;;
5904;SDS011;2978;42.012;24.880;2022-11-15T05:03:41;14.43;;;5.10;;
5904;SDS011;2978;42.012;24.880;2022-11-15T05:06:28;6.13;;;4.53;;
5904;SDS011;2978;42.012;24.880;2022-11-15T05:08:54;7.90;;;5.37;;
5904;SDS011;2978;42.012;24.880;2022-11-15T05:11:20;9.70;;;5.80;;
5904;SDS011;2978;42.012;24.880;2022-11-15T05:13:46;9.00;;;5.80;;
5904;SDS011;2978;42.012;24.880;2022-11-15T05:16:12;8.43;;;4.80;;
5904;SDS011;2978;42.012;24.880;2022-11-15T05:18:37;6.33;;;4.90;;
5904;SDS011;2978;42.012;24.880;2022-11-15T05:21:10;6.10;;;5.33;;
5904;SDS011;2978;42.012;24.880;2022-11-15T05:23:37;6.50;;;5.33;;
5904;SDS011;2978;42.012;24.880;2022-11-15T05:26:04;5.80;;;4.47;;
5904;SDS011;2978;42.012;24.880;2022-11-15T05:28:31;9.00;;;4.90;;
5904;SDS011;2978;42.012;24.880;2022-11-15T05:31:03;13.60;;;5.10;;
5904;SDS011;2978;42.012;24.880;2022-11-15T05:33:31;7.40;;;5.30;;
5904;SDS011;2978;42.012;24.880;2022-11-15T05:36:00;8.47;;;4.53;;
5904;SDS011;2978;42.012;24.880;2022-11-15T05:38:29;6.57;;;4.80;;
5904;SDS011;2978;42.012;24.880;2022-11-15T05:40:55;5.07;;;4.37;;
5904;SDS011;2978;42.012;24.880;2022-11-15T05:43:21;8.10;;;4.90;;
5904;SDS011;2978;42.012;24.880;2022-11-15T05:45:48;5.90;;;4.47;;
5904;SDS011;2978;42.012;24.880;2022-11-15T05:48:13;10.13;;;4.70;;
5904;SDS011;2978;42.012;24.880;2022-11-15T05:50:41;8.20;;;4.27;;
5904;SDS011;2978;42.012;24.880;2022-11-15T05:53:10;8.13;;;5.37;;
5904;SDS011;2978;42.012;24.880;2022-11-15T05:55:38;9.63;;;5.43;;
5904;SDS011;2978;42.012;24.880;2022-11-15T05:58:05;11.07;;;4.37;;
5904;SDS011;2978;42.012;24.880;2022-11-15T06:00:31;5.83;;;4.33;;
5904;SDS011;2978;42.012;24.880;2022-11-15T06:02:57;9.50;;;5.50;;
5904;SDS011;2978;42.012;24.880;2022-11-15T06:05:23;7.70;;;3.83;;
5904;SDS011;2978;42.012;24.880;2022-11-15T06:07:48;6.30;;;4.70;;
5904;SDS011;2978;42.012;24.880;2022-11-15T06:10:14;9.23;;;4.50;;
5904;SDS011;2978;42.012;24.880;2022-11-15T06:12:39;5.10;;;3.90;;
5904;SDS011;2978;42.012;24.880;2022-11-15T06:15:05;6.10;;;4.67;;
5904;SDS011;2978;42.012;24.880;2022-11-15T06:17:30;6.83;;;4.40;;
5904;SDS011;2978;42.012;24.880;2022-11-15T06:19:56;6.63;;;5.20;;
5904;SDS011;2978;42.012;24.880;2022-11-15T06:22:21;6.47;;;4.70;;
5904;SDS011;2978;42.012;24.880;2022-11-15T06:24:47;7.57;;;4.63;;
5904;SDS011;2978;42.012;24.880;2022-11-15T06:27:12;5.97;;;4.57;;
5904;SDS011;2978;42.012;24.880;2022-11-15T06:29:37;7.10;;;4.20;;
5904;SDS011;2978;42.012;24.880;2022-11-15T06:32:03;7.47;;;4.73;;
5904;SDS011;2978;42.012;24.880;2022-11-15T06:34:29;6.13;;;4.27;;
5904;SDS011;2978;42.012;24.880;2022-11-15T06:36:54;6.63;;;4.30;;
5904;SDS011;2978;42.012;24.880;2022-11-15T06:39:20;10.73;;;7.47;;
5904;SDS011;2978;42.012;24.880;2022-11-15T06:41:45;19.60;;;10.07;;
5904;SDS011;2978;42.012;24.880;2022-11-15T06:44:11;17.03;;;10.07;;
5904;SDS011;2978;42.012;24.880;2022-11-15T06:46:36;17.00;;;9.40;;
5904;SDS011;2978;42.012;24.880;2022-11-15T06:49:02;12.47;;;8.33;;
5904;SDS011;2978;42.012;24.880;2022-11-15T06:51:27;7.23;;;5.37;;
5904;SDS011;2978;42.012;24.880;2022-11-15T06:53:52;6.30;;;4.83;;
5904;SDS011;2978;42.012;24.880;2022-11-15T06:56:18;14.20;;;5.10;;
5904;SDS011;2978;42.012;24.880;2022-11-15T06:58:43;8.80;;;4.93;;
5904;SDS011;2978;42.012;24.880;2022-11-15T07:01:09;6.17;;;4.67;;
5904;SDS011;2978;42.012;24.880;2022-11-15T07:03:38;10.70;;;4.73;;
5904;SDS011;2978;42.012;24.880;2022-11-15T07:06:04;7.40;;;4.47;;
5904;SDS011;2978;42.012;24.880;2022-11-15T07:08:31;5.90;;;4.47;;
5904;SDS011;2978;42.012;24.880;2022-11-15T07:11:00;4.60;;;3.73;;
5904;SDS011;2978;42.012;24.880;2022-11-15T07:13:28;4.17;;;3.77;;
5904;SDS011;2978;42.012;24.880;2022-11-15T07:15:54;8.07;;;4.50;;
5904;SDS011;2978;42.012;24.880;2022-11-15T07:18:20;10.37;;;4.37;;
5904;SDS011;2978;42.012;24.880;2022-11-15T07:20:45;4.90;;;3.60;;
5904;SDS011;2978;42.012;24.880;2022-11-15T07:23:11;7.57;;;4.47;;
5904;SDS011;2978;42.012;24.880;2022-11-15T07:25:37;4.60;;;4.03;;
5904;SDS011;2978;42.012;24.880;2022-11-15T07:28:02;6.87;;;4.07;;
5904;SDS011;2978;42.012;24.880;2022-11-15T07:30:28;6.10;;;4.57;;
5904;SDS011;2978;42.012;24.880;2022-11-15T07:32:55;5.50;;;4.23;;
5904;SDS011;2978;42.012;24.880;2022-11-15T07:35:21;4.60;;;3.60;;
5904;SDS011;2978;42.012;24.880;2022-11-15T07:38:00;4.60;;;3.90;;
5904;SDS011;2978;42.012;24.880;2022-11-15T07:40:28;4.37;;;3.30;;
5904;SDS011;2978;42.012;24.880;2022-11-15T07:43:01;4.30;;;3.70;;
5904;SDS011;2978;42.012;24.880;2022-11-15T07:45:31;4.40;;;3.53;;
5904;SDS011;2978;42.012;24.880;2022-11-15T07:47:59;5.20;;;3.77;;
5904;SDS011;2978;42.012;24.880;2022-11-15T07:50:25;5.47;;;3.80;;
5904;SDS011;2978;42.012;24.880;2022-11-15T07:52:58;6.80;;;4.63;;
5904;SDS011;2978;42.012;24.880;2022-11-15T07:55:25;6.77;;;4.33;;
5904;SDS011;2978;42.012;24.880;2022-11-15T07:57:52;6.13;;;4.33;;
5904;SDS011;2978;42.012;24.880;2022-11-15T08:00:18;7.17;;;4.50;;
5904;SDS011;2978;42.012;24.880;2022-11-15T08:02:43;6.37;;;4.90;;
5904;SDS011;2978;42.012;24.880;2022-11-15T08:05:09;5.87;;;4.80;;
5904;SDS011;2978;42.012;24.880;2022-11-15T08:07:34;5.80;;;4.20;;
5904;SDS011;2978;42.012;24.880;2022-11-15T08:10:00;15.27;;;4.63;;
5904;SDS011;2978;42.012;24.880;2022-11-15T08:12:26;5.70;;;4.57;;
5904;SDS011;2978;42.012;24.880;2022-11-15T08:14:54;7.37;;;4.53;;
5904;SDS011;2978;42.012;24.880;2022-11-15T08:17:20;10.93;;;4.37;;
5904;SDS011;2978;42.012;24.880;2022-11-15T08:19:46;6.40;;;4.30;;
5904;SDS011;2978;42.012;24.880;2022-11-15T08:22:13;7.87;;;5.33;;
5904;SDS011;2978;42.012;24.880;2022-11-15T08:24:38;7.17;;;5.57;;
5904;SDS011;2978;42.012;24.880;2022-11-15T08:27:04;12.53;;;6.70;;
5904;SDS011;2978;42.012;24.880;2022-11-15T08:29:29;9.60;;;5.73;;
5904;SDS011;2978;42.012;24.880;2022-11-15T08:31:55;8.80;;;6.43;;
5904;SDS011;2978;42.012;24.880;2022-11-15T08:34:21;10.33;;;7.10;;
5904;SDS011;2978;42.012;24.880;2022-11-15T08:36:46;10.70;;;6.60;;
5904;SDS011;2978;42.012;24.880;2022-11-15T08:39:12;9.87;;;6.80;;
5904;SDS011;2978;42.012;24.880;2022-11-15T08:41:38;8.50;;;6.57;;
5904;SDS011;2978;42.012;24.880;2022-11-15T08:44:04;13.13;;;8.07;;
5904;SDS011;2978;42.012;24.880;2022-11-15T08:46:29;17.23;;;10.57;;
5904;SDS011;2978;42.012;24.880;2022-11-15T08:48:55;17.37;;;11.00;;
5904;SDS011;2978;42.012;24.880;2022-11-15T08:51:20;12.67;;;10.43;;
5904;SDS011;2978;42.012;24.880;2022-11-15T08:53:46;25.07;;;14.30;;
5904;SDS011;2978;42.012;24.880;2022-11-15T08:56:12;29.80;;;14.80;;
5904;SDS011;2978;42.012;24.880;2022-11-15T08:58:39;35.87;;;26.30;;
5904;SDS011;2978;42.012;24.880;2022-11-15T09:01:05;27.47;;;19.40;;
5904;SDS011;2978;42.012;24.880;2022-11-15T09:03:31;21.27;;;15.90;;
5904;SDS011;2978;42.012;24.880;2022-11-15T09:05:57;30.60;;;19.70;;
5904;SDS011;2978;42.012;24.880;2022-11-15T09:08:23;29.87;;;21.00;;
5904;SDS011;2978;42.012;24.880;2022-11-15T09:10:49;26.40;;;20.00;;
5904;SDS011;2978;42.012;24.880;2022-11-15T09:13:15;38.03;;;22.53;;
5904;SDS011;2978;42.012;24.880;2022-11-15T09:15:40;29.80;;;21.80;;
5904;SDS011;2978;42.012;24.880;2022-11-15T09:18:05;25.00;;;19.97;;
5904;SDS011;2978;42.012;24.880;2022-11-15T09:20:31;28.63;;;21.00;;
5904;SDS011;2978;42.012;24.880;2022-11-15T09:23:03;27.80;;;21.23;;
5904;SDS011;2978;42.012;24.880;2022-11-15T09:25:29;26.20;;;20.47;;
5904;SDS011;2978;42.012;24.880;2022-11-15T09:27:54;35.43;;;23.37;;
5904;SDS011;2978;42.012;24.880;2022-11-15T09:30:20;28.50;;;21.10;;
5904;SDS011;2978;42.012;24.880;2022-11-15T09:32:45;36.70;;;24.30;;
5904;SDS011;2978;42.012;24.880;2022-11-15T09:35:11;31.93;;;22.60;;
5904;SDS011;2978;42.012;24.880;2022-11-15T09:37:36;28.17;;;22.53;;
5904;SDS011;2978;42.012;24.880;2022-11-15T09:40:03;31.03;;;22.43;;
5904;SDS011;2978;42.012;24.880;2022-11-15T09:45:32;26.00;;;19.23;;
5904;SDS011;2978;42.012;24.880;2022-11-15T09:50:51;32.70;;;23.47;;
5904;SDS011;2978;42.012;24.880;2022-11-15T10:01:10;31.27;;;21.80;;
5904;SDS011;2978;42.012;24.880;2022-11-15T10:04:04;32.20;;;21.93;;
5904;SDS011;2978;42.012;24.880;2022-11-15T10:06:30;30.43;;;21.13;;
5904;SDS011;2978;42.012;24.880;2022-11-15T10:09:07;35.90;;;21.47;;
5904;SDS011;2978;42.012;24.880;2022-11-15T10:11:49;30.57;;;23.80;;
5904;SDS011;2978;42.012;24.880;2022-11-15T10:14:21;29.80;;;21.30;;
5904;SDS011;2978;42.012;24.880;2022-11-15T10:22:20;31.63;;;23.77;;
5904;SDS011;2978;42.012;24.880;2022-11-15T10:27:33;33.70;;;24.00;;
5904;SDS011;2978;42.012;24.880;2022-11-15T10:29:59;31.50;;;24.00;;
5904;SDS011;2978;42.012;24.880;2022-11-15T10:32:24;33.87;;;24.07;;
5904;SDS011;2978;42.012;24.880;2022-11-15T10:34:50;37.90;;;25.73;;
5904;SDS011;2978;42.012;24.880;2022-11-15T10:40:21;36.00;;;25.77;;
5904;SDS011;2978;42.012;24.880;2022-11-15T10:42:48;29.00;;;23.00;;
5904;SDS011;2978;42.012;24.880;2022-11-15T10:45:31;32.73;;;23.33;;
5904;SDS011;2978;42.012;24.880;2022-11-15T10:50:39;30.80;;;21.57;;
5904;SDS011;2978;42.012;24.880;2022-11-15T10:56:05;29.63;;;23.27;;
5904;SDS011;2978;42.012;24.880;2022-11-15T10:58:37;21.37;;;18.33;;
5904;SDS011;2978;42.012;24.880;2022-11-15T11:03:40;29.67;;;20.47;;
5904;SDS011;2978;42.012;24.880;2022-11-15T11:06:08;29.00;;;21.17;;
5904;SDS011;2978;42.012;24.880;2022-11-15T11:08:39;28.37;;;20.40;;
5904;SDS011;2978;42.012;24.880;2022-11-15T11:11:05;23.30;;;19.30;;
5904;SDS011;2978;42.012;24.880;2022-11-15T11:13:36;24.40;;;20.13;;
5904;SDS011;2978;42.012;24.880;2022-11-15T11:24:54;30.60;;;22.87;;
5904;SDS011;2978;42.012;24.880;2022-11-15T11:30:03;29.30;;;22.83;;
5904;SDS011;2978;42.012;24.880;2022-11-15T11:35:13;32.60;;;22.30;;
5904;SDS011;2978;42.012;24.880;2022-11-15T11:38:15;40.63;;;26.73;;
5904;SDS011;2978;42.012;24.880;2022-11-15T11:46:21;30.40;;;22.93;;
5904;SDS011;2978;42.012;24.880;2022-11-15T11:49:19;43.80;;;25.00;;
5904;SDS011;2978;42.012;24.880;2022-11-15T11:57:15;29.73;;;22.30;;
5904;SDS011;2978;42.012;24.880;2022-11-15T11:59:53;34.93;;;22.57;;
5904;SDS011;2978;42.012;24.880;2022-11-15T12:02:28;28.30;;;20.00;;
5904;SDS011;2978;42.012;24.880;2022-11-15T12:05:03;33.60;;;23.47;;
5904;SDS011;2978;42.012;24.880;2022-11-15T12:07:37;26.83;;;20.90;;
5904;SDS011;2978;42.012;24.880;2022-11-15T12:10:15;27.63;;;21.80;;
5904;SDS011;2978;42.012;24.880;2022-11-15T12:15:45;29.40;;;21.83;;
5904;SDS011;2978;42.012;24.880;2022-11-15T12:18:17;35.37;;;24.33;;
5904;SDS011;2978;42.012;24.880;2022-11-15T12:20:54;28.63;;;23.20;;
5904;SDS011;2978;42.012;24.880;2022-11-15T12:23:32;34.50;;;24.50;;
5904;SDS011;2978;42.012;24.880;2022-11-15T12:26:08;33.00;;;25.03;;
5904;SDS011;2978;42.012;24.880;2022-11-15T12:28:43;33.60;;;21.57;;
5904;SDS011;2978;42.012;24.880;2022-11-15T12:33:46;24.27;;;20.03;;
5904;SDS011;2978;42.012;24.880;2022-11-15T12:41:30;24.13;;;19.87;;
5904;SDS011;2978;42.012;24.880;2022-11-15T12:43:59;32.03;;;23.67;;
5904;SDS011;2978;42.012;24.880;2022-11-15T12:49:01;26.90;;;22.33;;
5904;SDS011;2978;42.012;24.880;2022-11-15T13:17:57;32.63;;;21.37;;
5904;SDS011;2978;42.012;24.880;2022-11-15T13:23:01;27.03;;;21.63;;
5904;SDS011;2978;42.012;24.880;2022-11-15T13:28:26;30.93;;;22.77;;
5904;SDS011;2978;42.012;24.880;2022-11-15T13:30:55;31.37;;;23.40;;
5904;SDS011;2978;42.012;24.880;2022-11-15T13:33:36;36.63;;;23.67;;
5904;SDS011;2978;42.012;24.880;2022-11-15T13:36:06;30.33;;;24.37;;
5904;SDS011;2978;42.012;24.880;2022-11-15T13:38:40;33.07;;;25.43;;
5904;SDS011;2978;42.012;24.880;2022-11-15T13:41:26;33.20;;;25.60;;
5904;SDS011;2978;42.012;24.880;2022-11-15T13:43:53;34.93;;;26.97;;
5904;SDS011;2978;42.012;24.880;2022-11-15T13:48:58;33.90;;;22.27;;
5904;SDS011;2978;42.012;24.880;2022-11-15T13:59:51;36.33;;;26.57;;
5904;SDS011;2978;42.012;24.880;2022-11-15T14:02:32;37.70;;;26.70;;
5904;SDS011;2978;42.012;24.880;2022-11-15T14:05:11;36.27;;;24.00;;
5904;SDS011;2978;42.012;24.880;2022-11-15T14:07:44;33.80;;;26.07;;
5904;SDS011;2978;42.012;24.880;2022-11-15T14:10:29;36.73;;;23.70;;
5904;SDS011;2978;42.012;24.880;2022-11-15T14:12:57;32.80;;;24.00;;
5904;SDS011;2978;42.012;24.880;2022-11-15T14:17:57;36.67;;;26.60;;
5904;SDS011;2978;42.012;24.880;2022-11-15T14:22:52;37.63;;;29.03;;
5904;SDS011;2978;42.012;24.880;2022-11-15T14:25:20;45.87;;;33.43;;
5904;SDS011;2978;42.012;24.880;2022-11-15T14:30:41;45.77;;;32.47;;
5904;SDS011;2978;42.012;24.880;2022-11-15T14:33:17;44.03;;;32.53;;
5904;SDS011;2978;42.012;24.880;2022-11-15T14:35:43;42.37;;;31.40;;
5904;SDS011;2978;42.012;24.880;2022-11-15T14:38:08;32.60;;;26.13;;
5904;SDS011;2978;42.012;24.880;2022-11-15T14:40:34;32.80;;;25.67;;
5904;SDS011;2978;42.012;24.880;2022-11-15T14:42:59;39.80;;;26.03;;
5904;SDS011;2978;42.012;24.880;2022-11-15T14:45:26;38.20;;;27.73;;
5904;SDS011;2978;42.012;24.880;2022-11-15T14:47:52;36.90;;;24.90;;
5904;SDS011;2978;42.012;24.880;2022-11-15T14:50:21;42.07;;;27.90;;
5904;SDS011;2978;42.012;24.880;2022-11-15T14:52:47;39.27;;;27.23;;
5904;SDS011;2978;42.012;24.880;2022-11-15T14:57:45;39.63;;;27.27;;
5904;SDS011;2978;42.012;24.880;2022-11-15T15:00:11;37.63;;;27.67;;
5904;SDS011;2978;42.012;24.880;2022-11-15T15:02:37;41.33;;;28.90;;
5904;SDS011;2978;42.012;24.880;2022-11-15T15:05:12;42.10;;;29.97;;
5904;SDS011;2978;42.012;24.880;2022-11-15T15:10:41;48.13;;;32.80;;
5904;SDS011;2978;42.012;24.880;2022-11-15T15:15:58;63.40;;;39.93;;
5904;SDS011;2978;42.012;24.880;2022-11-15T15:24:48;59.07;;;39.73;;
